Time;durP1;ratioP1;P1;durP2;ratioP2;P2;SDS_P1;SDS_P2;PMS_P1;PMS_P2;Temp;Humidity;BMP_temperature;BMP_pressure;BME280_temperature;BME280_humidity;BME280_pressure;Samples;Min_cycle;Max_cycle;Signal;HPM_P1;HPM_P2
2022/11/23 00:01:42;;;;;;;11.50;3.20;;;7.00;99.90;;;;;;5040232;28;20489;-62
2022/11/23 00:04:13;;;;;;;6.50;3.00;;;7.00;99.90;;;;;;5040854;28;20483;-61
2022/11/23 00:06:43;;;;;;;7.47;3.27;;;7.00;99.90;;;;;;5040113;28;20480;-61
2022/11/23 00:09:11;;;;;;;5.80;3.00;;;7.00;99.90;;;;;;5039904;28;20747;-61
2022/11/23 00:11:38;;;;;;;5.30;3.20;;;7.00;99.90;;;;;;5053137;28;20826;-62
2022/11/23 00:14:06;;;;;;;4.83;2.90;;;7.00;99.90;;;;;;5059421;28;20465;-61
2022/11/23 00:16:35;;;;;;;13.20;3.43;;;7.10;99.90;;;;;;5057842;28;20926;-62
2022/11/23 00:19:03;;;;;;;8.60;3.13;;;7.10;99.90;;;;;;5059813;28;20437;-61
2022/11/23 00:21:32;;;;;;;9.30;3.00;;;7.00;99.90;;;;;;5049977;28;20769;-61
2022/11/23 00:24:03;;;;;;;6.70;4.37;;;7.10;99.90;;;;;;5039630;28;20459;-61
2022/11/23 00:26:30;;;;;;;7.30;3.47;;;7.10;99.90;;;;;;5039524;28;20463;-62
2022/11/23 00:28:58;;;;;;;9.20;3.97;;;7.10;99.90;;;;;;5039504;28;20469;-61
2022/11/23 00:31:25;;;;;;;10.70;3.53;;;7.10;99.90;;;;;;5044026;28;20546;-62
2022/11/23 00:33:55;;;;;;;7.50;2.60;;;7.10;99.90;;;;;;5059153;28;20446;-62
2022/11/23 00:36:24;;;;;;;9.93;3.33;;;7.20;99.90;;;;;;5057282;28;20454;-62
2022/11/23 00:38:55;;;;;;;5.80;2.73;;;7.20;99.90;;;;;;5059314;28;20465;-61
2022/11/23 00:41:27;;;;;;;5.10;2.90;;;7.20;99.90;;;;;;5058808;28;20469;-62
2022/11/23 00:43:54;;;;;;;11.10;2.70;;;7.20;99.90;;;;;;5040133;28;20490;-62
2022/11/23 00:46:24;;;;;;;5.10;3.47;;;7.20;99.90;;;;;;5038932;28;20467;-62
2022/11/23 00:48:55;;;;;;;5.33;2.50;;;7.20;99.90;;;;;;5039346;28;20495;-62
2022/11/23 00:51:23;;;;;;;8.73;2.43;;;7.20;99.90;;;;;;5039215;28;20470;-62
2022/11/23 00:53:51;;;;;;;8.97;3.23;;;7.20;99.90;;;;;;5055414;28;20883;-62
2022/11/23 00:56:20;;;;;;;9.10;2.97;;;7.30;99.90;;;;;;5058304;28;20462;-61
2022/11/23 00:58:49;;;;;;;4.30;2.40;;;7.30;99.90;;;;;;5058391;28;20526;-61
2022/11/23 01:01:18;;;;;;;8.90;2.83;;;7.40;99.90;;;;;;5058971;28;20466;-61
2022/11/23 01:03:47;;;;;;;8.50;3.10;;;7.40;99.90;;;;;;5045305;28;20465;-61
2022/11/23 01:06:18;;;;;;;8.47;3.23;;;7.40;99.90;;;;;;5038978;28;20741;-62
2022/11/23 01:08:50;;;;;;;5.73;2.37;;;7.30;99.90;;;;;;5040122;28;20797;-61
2022/11/23 01:11:18;;;;;;;4.93;2.50;;;7.40;99.90;;;;;;5021203;28;20470;-61
2022/11/23 01:13:45;;;;;;;5.60;2.27;;;7.40;99.90;;;;;;5046290;28;20462;-61
2022/11/23 01:16:15;;;;;;;5.63;2.63;;;7.40;99.90;;;;;;5056933;28;20451;-61
2022/11/23 01:18:45;;;;;;;7.33;2.40;;;7.40;99.90;;;;;;5058768;28;20490;-60
2022/11/23 01:21:15;;;;;;;7.00;2.67;;;7.40;99.90;;;;;;5058779;28;20458;-61
2022/11/23 01:23:43;;;;;;;8.30;3.17;;;7.40;99.90;;;;;;5053014;28;20544;-61
2022/11/23 01:26:12;;;;;;;7.07;2.80;;;7.40;99.90;;;;;;5038116;28;20473;-61
2022/11/23 01:28:40;;;;;;;6.67;3.87;;;7.40;99.90;;;;;;5038474;28;20470;-61
2022/11/23 01:31:11;;;;;;;8.37;3.10;;;7.40;99.90;;;;;;5038163;28;20525;-61
2022/11/23 01:33:38;;;;;;;6.77;2.47;;;7.50;99.90;;;;;;5037764;28;20463;-61
2022/11/23 01:36:12;;;;;;;6.17;2.30;;;7.40;99.90;;;;;;5058399;28;20437;-61
2022/11/23 01:38:45;;;;;;;7.27;2.40;;;7.40;99.90;;;;;;5058049;28;20461;-61
2022/11/23 01:41:15;;;;;;;4.10;2.13;;;7.50;99.90;;;;;;5058029;28;20462;-61
2022/11/23 01:43:42;;;;;;;4.40;1.93;;;7.50;99.90;;;;;;5057987;28;20469;-60
2022/11/23 01:46:10;;;;;;;4.40;2.10;;;7.50;99.90;;;;;;5040047;28;20445;-60
2022/11/23 01:48:41;;;;;;;4.17;2.00;;;7.50;99.90;;;;;;5038114;28;20463;-61
2022/11/23 01:51:13;;;;;;;5.90;2.00;;;7.50;99.90;;;;;;5038105;28;20500;-60
2022/11/23 01:53:43;;;;;;;8.20;2.13;;;7.60;99.90;;;;;;5037650;28;20474;-59
2022/11/23 01:56:15;;;;;;;3.43;1.93;;;7.60;99.90;;;;;;5050485;28;20466;-59
2022/11/23 01:58:46;;;;;;;12.27;2.90;;;7.60;99.90;;;;;;5056161;28;20469;-60
2022/11/23 02:01:14;;;;;;;5.93;2.30;;;7.60;99.90;;;;;;5057854;28;20767;-61
2022/11/23 02:03:43;;;;;;;7.80;3.40;;;7.60;99.90;;;;;;5057091;28;20494;-60
2022/11/23 02:06:15;;;;;;;8.27;2.30;;;7.60;99.90;;;;;;5046775;28;20904;-57
2022/11/23 02:08:45;;;;;;;4.37;2.37;;;7.60;99.90;;;;;;5037765;28;20812;-60
2022/11/23 02:11:14;;;;;;;6.60;2.37;;;7.60;99.90;;;;;;5037445;28;20494;-59
2022/11/23 02:13:42;;;;;;;5.50;2.10;;;7.60;99.90;;;;;;5037425;28;20558;-59
2022/11/23 02:16:10;;;;;;;5.63;2.30;;;7.70;99.90;;;;;;5042039;28;20526;-58
2022/11/23 02:18:41;;;;;;;4.23;2.23;;;7.60;99.90;;;;;;5057219;28;20496;-60
2022/11/23 02:21:08;;;;;;;7.43;2.23;;;7.70;99.90;;;;;;5055575;28;20462;-59
2022/11/23 02:23:47;;;;;;;3.50;1.73;;;7.70;99.90;;;;;;5057356;28;20848;-59
2022/11/23 02:26:20;;;;;;;4.93;2.10;;;7.70;99.90;;;;;;5053764;28;20534;-59
2022/11/23 02:28:57;;;;;;;5.13;2.73;;;7.70;99.90;;;;;;5037274;28;20463;-60
2022/11/23 02:31:24;;;;;;;6.10;2.00;;;7.70;99.90;;;;;;5049281;28;20497;-60
2022/11/23 02:33:51;;;;;;;3.87;2.00;;;7.70;99.90;;;;;;5057191;28;20468;-60
2022/11/23 02:36:36;;;;;;;5.80;3.00;;;7.70;99.90;;;;;;5057322;28;20484;-59
2022/11/23 02:39:07;;;;;;;6.23;2.43;;;7.80;99.90;;;;;;5057683;28;20469;-59
2022/11/23 02:41:41;;;;;;;3.27;2.20;;;7.80;99.90;;;;;;5046743;28;20462;-60
2022/11/23 02:44:20;;;;;;;5.87;2.20;;;7.80;99.90;;;;;;5037915;28;20491;-58
2022/11/23 02:46:52;;;;;;;6.10;2.53;;;7.80;99.90;;;;;;5037182;28;20462;-58
2022/11/23 02:49:20;;;;;;;13.07;2.50;;;7.80;99.90;;;;;;5037486;28;20902;-60
2022/11/23 02:51:50;;;;;;;7.20;3.50;;;7.80;99.90;;;;;;5043711;28;20891;-54
2022/11/23 02:54:17;;;;;;;4.90;2.50;;;7.80;99.90;;;;;;5057028;28;20553;-60
2022/11/23 02:56:48;;;;;;;5.70;2.60;;;7.70;99.90;;;;;;5045350;28;20437;-60
2022/11/23 02:59:15;;;;;;;7.43;2.47;;;7.70;99.90;;;;;;5038054;28;20464;-60
2022/11/23 03:01:43;;;;;;;8.60;2.50;;;7.70;99.90;;;;;;5036409;28;20467;-61
2022/11/23 03:04:12;;;;;;;9.23;2.80;;;7.60;99.90;;;;;;5036809;28;20605;-63
2022/11/23 03:06:39;;;;;;;5.00;1.97;;;7.60;99.90;;;;;;5040680;28;20524;-63
2022/11/23 03:09:07;;;;;;;9.53;3.10;;;7.60;99.90;;;;;;5057139;28;20785;-63
2022/11/23 03:11:34;;;;;;;5.90;2.70;;;7.60;99.90;;;;;;5056288;28;20552;-62
2022/11/23 03:14:03;;;;;;;5.57;2.50;;;7.60;99.90;;;;;;5056566;28;20464;-63
2022/11/23 03:16:32;;;;;;;5.23;2.20;;;7.50;99.90;;;;;;5056544;28;20970;-62
2022/11/23 03:18:59;;;;;;;8.93;2.20;;;7.50;99.90;;;;;;5056428;28;20504;-62
2022/11/23 03:21:27;;;;;;;9.33;2.80;;;7.50;99.90;;;;;;5056153;28;20539;-62
2022/11/23 03:23:55;;;;;;;7.70;2.47;;;7.40;99.90;;;;;;5060022;28;20744;-63
2022/11/23 03:26:25;;;;;;;5.23;2.03;;;7.40;99.90;;;;;;5060949;28;20466;-62
2022/11/23 03:28:52;;;;;;;5.40;2.40;;;7.40;99.90;;;;;;5044679;28;20437;-63
2022/11/23 03:31:21;;;;;;;3.90;2.37;;;7.40;99.90;;;;;;5042291;28;20473;-62
2022/11/23 03:33:48;;;;;;;7.13;2.80;;;7.40;99.90;;;;;;5053513;28;20462;-63
2022/11/23 03:36:15;;;;;;;5.13;2.50;;;7.40;99.90;;;;;;5060712;28;20458;-63
2022/11/23 03:38:42;;;;;;;6.70;2.70;;;7.40;99.90;;;;;;5043876;28;20466;-62
2022/11/23 03:41:09;;;;;;;7.80;3.10;;;7.40;99.90;;;;;;5040865;28;20459;-62
2022/11/23 03:43:38;;;;;;;7.83;2.67;;;7.40;99.90;;;;;;5047367;28;20490;-63
2022/11/23 03:46:05;;;;;;;7.10;3.07;;;7.40;99.90;;;;;;5059014;28;20462;-62
2022/11/23 03:48:34;;;;;;;6.30;2.53;;;7.40;99.90;;;;;;5059076;28;20461;-62
2022/11/23 03:51:01;;;;;;;6.83;2.60;;;7.40;99.90;;;;;;5061105;28;20439;-62
2022/11/23 03:53:29;;;;;;;3.77;2.10;;;7.30;99.90;;;;;;5057540;28;20437;-63
2022/11/23 03:55:57;;;;;;;5.53;2.87;;;7.30;99.90;;;;;;5041752;28;20495;-62
2022/11/23 03:58:24;;;;;;;8.30;2.57;;;7.30;99.90;;;;;;5040947;28;20728;-63
2022/11/23 04:00:54;;;;;;;7.70;2.63;;;7.30;99.90;;;;;;5041254;28;20462;-63
2022/11/23 04:03:21;;;;;;;4.87;2.67;;;7.30;99.90;;;;;;5040308;28;20538;-63
2022/11/23 04:05:50;;;;;;;5.33;2.73;;;7.30;99.90;;;;;;5058254;28;20921;-63
2022/11/23 04:08:17;;;;;;;4.70;2.67;;;7.30;99.90;;;;;;5059254;28;20484;-62
2022/11/23 04:10:44;;;;;;;3.97;2.77;;;7.30;99.90;;;;;;5060902;28;20462;-62
2022/11/23 04:13:12;;;;;;;5.90;2.27;;;7.30;99.90;;;;;;5060758;28;20440;-63
2022/11/23 04:15:39;;;;;;;6.37;3.33;;;7.20;99.90;;;;;;5046120;28;20558;-63
2022/11/23 04:18:10;;;;;;;8.07;2.90;;;7.20;99.90;;;;;;5039721;28;20469;-64
2022/11/23 04:20:37;;;;;;;5.23;3.10;;;7.30;99.90;;;;;;5057905;28;20465;-63
2022/11/23 04:23:06;;;;;;;4.53;2.73;;;7.30;99.90;;;;;;5060370;28;20469;-63
2022/11/23 04:25:33;;;;;;;5.20;2.80;;;7.30;99.90;;;;;;5050838;28;20474;-63
2022/11/23 04:28:00;;;;;;;8.20;2.87;;;7.30;99.90;;;;;;5040788;28;20852;-63
2022/11/23 04:30:28;;;;;;;6.90;3.13;;;7.30;99.90;;;;;;5039520;28;20470;-62
2022/11/23 04:32:55;;;;;;;5.70;3.07;;;7.30;99.90;;;;;;5040018;28;20442;-63
2022/11/23 04:35:22;;;;;;;5.03;2.87;;;7.30;99.90;;;;;;5041757;28;20455;-63
2022/11/23 04:37:52;;;;;;;4.40;2.57;;;7.30;99.90;;;;;;5059214;28;20768;-64
2022/11/23 04:40:21;;;;;;;7.77;3.10;;;7.20;99.90;;;;;;5058881;28;20458;-62
2022/11/23 04:42:48;;;;;;;7.53;3.40;;;7.20;99.90;;;;;;5059368;28;20887;-63
2022/11/23 04:45:15;;;;;;;7.87;3.83;;;7.20;99.90;;;;;;5058996;28;20494;-62
2022/11/23 04:47:43;;;;;;;7.17;3.70;;;7.20;99.90;;;;;;5040226;28;20553;-62
2022/11/23 04:50:10;;;;;;;8.57;3.97;;;7.20;99.90;;;;;;5040239;28;20559;-62
2022/11/23 04:52:37;;;;;;;13.43;5.70;;;7.20;99.90;;;;;;5039002;28;20934;-61
2022/11/23 04:55:05;;;;;;;11.30;4.27;;;7.20;99.90;;;;;;5039148;28;20437;-61
2022/11/23 04:57:34;;;;;;;9.50;4.70;;;7.20;99.90;;;;;;5051426;28;20493;-62
2022/11/23 05:00:01;;;;;;;13.20;9.03;;;7.20;99.90;;;;;;5058333;28;20462;-62
2022/11/23 05:02:28;;;;;;;12.40;7.73;;;7.30;99.90;;;;;;5040652;28;20546;-62
2022/11/23 05:04:59;;;;;;;12.23;4.97;;;7.30;99.90;;;;;;5038692;28;20473;-62
2022/11/23 05:07:26;;;;;;;12.50;4.13;;;7.30;99.90;;;;;;5040410;28;20976;-62
2022/11/23 05:09:53;;;;;;;8.70;4.07;;;7.30;99.90;;;;;;5039583;28;20553;-62
2022/11/23 05:12:21;;;;;;;7.43;4.13;;;7.20;99.90;;;;;;5038524;28;20485;-62
2022/11/23 05:14:49;;;;;;;7.60;3.50;;;7.30;99.90;;;;;;5038700;28;20533;-62
2022/11/23 05:17:16;;;;;;;7.27;3.30;;;7.30;99.90;;;;;;5040904;28;20544;-62
2022/11/23 05:19:44;;;;;;;11.33;3.20;;;7.30;99.90;;;;;;5056944;28;20732;-62
2022/11/23 05:22:11;;;;;;;8.50;3.20;;;7.30;99.90;;;;;;5058123;28;20463;-62
2022/11/23 05:24:40;;;;;;;6.27;2.90;;;7.30;99.90;;;;;;5058384;28;20946;-62
2022/11/23 05:27:07;;;;;;;10.40;3.87;;;7.30;99.90;;;;;;5050039;28;20843;-62
2022/11/23 05:29:35;;;;;;;7.50;2.77;;;7.30;99.90;;;;;;5055990;28;20477;-62
2022/11/23 05:32:06;;;;;;;5.57;3.13;;;7.30;99.90;;;;;;5057180;28;20925;-62
2022/11/23 05:34:35;;;;;;;10.40;3.27;;;7.30;99.90;;;;;;5058004;28;20458;-62
2022/11/23 05:37:05;;;;;;;6.50;2.70;;;7.30;99.90;;;;;;5057656;28;20473;-63
2022/11/23 05:39:32;;;;;;;9.00;3.10;;;7.30;99.90;;;;;;5040532;28;20470;-63
2022/11/23 05:41:59;;;;;;;4.80;3.23;;;7.30;99.90;;;;;;5036138;28;20521;-63
2022/11/23 05:44:29;;;;;;;8.60;2.60;;;7.40;99.90;;;;;;5037734;28;20499;-63
2022/11/23 05:46:58;;;;;;;3.80;2.33;;;7.30;99.90;;;;;;5036689;28;20517;-63
2022/11/23 05:49:29;;;;;;;7.60;2.87;;;7.30;99.90;;;;;;5046446;28;20995;-62
2022/11/23 05:51:57;;;;;;;7.40;2.80;;;7.30;99.90;;;;;;5054856;28;20472;-63
2022/11/23 05:54:24;;;;;;;6.93;2.73;;;7.30;99.90;;;;;;5056697;28;20782;-63
2022/11/23 05:56:51;;;;;;;5.67;2.47;;;7.30;99.90;;;;;;5057378;28;20465;-63
2022/11/23 05:59:18;;;;;;;5.50;3.60;;;7.30;99.90;;;;;;5051155;28;20801;-62
2022/11/23 06:01:47;;;;;;;7.60;2.70;;;7.30;99.90;;;;;;5037631;28;20442;-63
2022/11/23 06:04:17;;;;;;;7.93;3.30;;;7.30;99.90;;;;;;5057262;28;20800;-63
2022/11/23 06:06:46;;;;;;;5.20;2.63;;;7.30;99.90;;;;;;5056537;28;20469;-63
2022/11/23 06:09:13;;;;;;;8.30;3.07;;;7.30;99.90;;;;;;5056374;28;20462;-63
2022/11/23 06:11:41;;;;;;;7.40;2.90;;;7.30;99.90;;;;;;5055817;28;20469;-64
2022/11/23 06:14:08;;;;;;;12.57;3.17;;;7.30;99.90;;;;;;5040327;28;20938;-63
2022/11/23 06:16:35;;;;;;;9.60;2.90;;;7.20;99.90;;;;;;5038433;28;20474;-62
2022/11/23 06:19:04;;;;;;;7.80;3.73;;;7.20;99.90;;;;;;5037563;28;20550;-63
2022/11/23 06:21:34;;;;;;;6.90;2.80;;;7.20;99.90;;;;;;5036709;28;20466;-63
2022/11/23 06:24:02;;;;;;;9.90;3.37;;;7.20;99.90;;;;;;5047388;28;20486;-64
2022/11/23 06:26:30;;;;;;;14.07;3.63;;;7.20;99.90;;;;;;5054707;28;20462;-63
2022/11/23 06:28:57;;;;;;;7.50;3.83;;;7.20;99.90;;;;;;5053512;28;20466;-63
2022/11/23 06:31:25;;;;;;;9.23;3.50;;;7.20;99.90;;;;;;5055332;28;20905;-62
2022/11/23 06:33:55;;;;;;;5.40;3.70;;;7.20;99.90;;;;;;5054472;28;20541;-63
2022/11/23 06:36:22;;;;;;;8.77;3.70;;;7.20;99.90;;;;;;5056465;28;20472;-62
2022/11/23 06:38:53;;;;;;;7.60;2.90;;;7.20;99.90;;;;;;5055895;28;20469;-63
2022/11/23 06:41:24;;;;;;;5.67;3.30;;;7.20;99.90;;;;;;5057066;28;20462;-64
2022/11/23 06:43:51;;;;;;;10.73;2.70;;;7.20;99.90;;;;;;5054185;28;20490;-63
2022/11/23 06:46:20;;;;;;;6.23;3.00;;;7.10;99.90;;;;;;5038183;28;20518;-64
2022/11/23 06:48:48;;;;;;;8.30;3.40;;;7.10;99.90;;;;;;5037265;28;20459;-64
2022/11/23 06:51:15;;;;;;;9.33;3.67;;;7.10;99.90;;;;;;5036927;28;20881;-63
2022/11/23 06:53:43;;;;;;;11.13;2.83;;;7.10;99.90;;;;;;5036362;28;20463;-64
2022/11/23 06:56:10;;;;;;;7.00;3.10;;;7.20;99.90;;;;;;5053297;28;20472;-64
2022/11/23 06:58:38;;;;;;;9.33;3.73;;;7.10;99.90;;;;;;5057543;28;20470;-64
2022/11/23 07:01:09;;;;;;;11.73;5.20;;;7.10;99.90;;;;;;5045378;28;20445;-63
2022/11/23 07:03:36;;;;;;;15.03;7.20;;;7.10;99.90;;;;;;5038720;28;20585;-63
2022/11/23 07:06:06;;;;;;;8.67;4.30;;;7.10;99.90;;;;;;5051194;28;20468;-64
2022/11/23 07:08:33;;;;;;;6.13;3.70;;;7.10;99.90;;;;;;5060108;28;20468;-62
2022/11/23 07:11:01;;;;;;;9.73;4.80;;;7.00;99.90;;;;;;5058379;28;20462;-64
2022/11/23 07:13:29;;;;;;;13.47;5.97;;;7.10;99.90;;;;;;5060504;28;20462;-63
2022/11/23 07:15:59;;;;;;;6.67;3.80;;;7.00;99.90;;;;;;5051906;28;20460;-64
2022/11/23 07:18:27;;;;;;;10.47;6.73;;;7.00;99.90;;;;;;5040595;28;20467;-63
2022/11/23 07:21:00;;;;;;;9.13;4.13;;;7.00;99.90;;;;;;5040975;28;20473;-63
2022/11/23 07:23:29;;;;;;;8.73;4.37;;;7.00;99.90;;;;;;5039513;28;20465;-64
2022/11/23 07:25:59;;;;;;;14.47;6.20;;;7.00;99.90;;;;;;5042453;28;20497;-64
2022/11/23 07:28:29;;;;;;;10.37;3.87;;;7.00;99.90;;;;;;5059886;28;20466;-63
2022/11/23 07:31:02;;;;;;;9.10;3.10;;;7.00;99.90;;;;;;5060207;28;20479;-63
2022/11/23 07:33:30;;;;;;;10.93;3.87;;;7.10;99.90;;;;;;5060311;28;20462;-64
2022/11/23 07:36:00;;;;;;;13.13;6.93;;;7.10;99.90;;;;;;5059116;28;20458;-64
2022/11/23 07:38:28;;;;;;;8.97;5.30;;;7.10;99.90;;;;;;5040511;28;20472;-63
2022/11/23 07:40:57;;;;;;;9.57;4.70;;;7.10;99.90;;;;;;5040422;28;20529;-63
2022/11/23 07:43:26;;;;;;;10.60;3.77;;;7.10;99.90;;;;;;5040529;28;20469;-64
2022/11/23 07:45:57;;;;;;;10.70;4.97;;;7.10;99.90;;;;;;5039514;28;20519;-64
2022/11/23 07:48:26;;;;;;;11.13;4.37;;;7.10;99.90;;;;;;5055771;28;20462;-64
2022/11/23 07:50:54;;;;;;;15.83;3.80;;;7.10;99.90;;;;;;5058584;28;20466;-63
2022/11/23 07:53:22;;;;;;;8.17;3.53;;;7.10;99.90;;;;;;5040402;28;20868;-63
2022/11/23 07:55:49;;;;;;;15.87;3.50;;;7.10;99.90;;;;;;5039702;28;20462;-63
2022/11/23 07:58:19;;;;;;;6.77;3.40;;;7.10;99.90;;;;;;5051384;28;20922;-63
2022/11/23 08:00:46;;;;;;;19.30;5.57;;;7.10;99.90;;;;;;5059324;28;20501;-63
2022/11/23 08:03:15;;;;;;;10.80;3.50;;;7.10;99.90;;;;;;5042318;28;20995;-63
2022/11/23 08:05:44;;;;;;;7.13;3.10;;;7.10;99.90;;;;;;5039682;28;20536;-63
2022/11/23 08:08:14;;;;;;;7.37;3.07;;;7.10;99.90;;;;;;5045897;28;20473;-62
2022/11/23 08:10:52;;;;;;;7.93;3.40;;;7.10;99.90;;;;;;5048749;28;20555;-62
2022/11/23 08:13:20;;;;;;;4.20;2.27;;;7.10;99.90;;;;;;5040078;28;20468;-62
2022/11/23 08:15:47;;;;;;;11.03;3.30;;;7.20;99.90;;;;;;5039567;28;20542;-62
2022/11/23 08:18:14;;;;;;;5.83;3.50;;;7.40;99.90;;;;;;5043026;28;20454;-62
2022/11/23 08:20:41;;;;;;;10.13;2.80;;;7.60;99.90;;;;;;5059556;28;20440;-61
2022/11/23 08:23:12;;;;;;;7.30;3.20;;;7.70;99.90;;;;;;5057912;28;20466;-61
2022/11/23 08:25:41;;;;;;;11.03;3.80;;;7.80;99.90;;;;;;5057956;28;20563;-62
2022/11/23 08:28:08;;;;;;;9.67;2.87;;;7.90;99.90;;;;;;5059161;28;20804;-62
2022/11/23 08:30:38;;;;;;;6.10;3.10;;;8.10;99.90;;;;;;5043835;28;20465;-62
2022/11/23 08:33:06;;;;;;;8.00;3.27;;;8.20;99.90;;;;;;5059050;28;20553;-61
2022/11/23 08:35:37;;;;;;;6.63;3.00;;;8.40;99.90;;;;;;5058230;28;20516;-61
2022/11/23 08:38:08;;;;;;;11.90;2.87;;;8.50;99.90;;;;;;5058380;28;20953;-61
2022/11/23 08:40:39;;;;;;;8.37;2.77;;;8.50;99.90;;;;;;5058412;28;20531;-61
2022/11/23 08:43:12;;;;;;;8.97;3.30;;;8.50;99.90;;;;;;5057135;28;20462;-61
2022/11/23 08:45:43;;;;;;;5.70;2.20;;;8.50;99.90;;;;;;5061532;28;20864;-60
2022/11/23 08:48:11;;;;;;;5.80;3.00;;;8.70;99.90;;;;;;5078816;28;20461;-61
2022/11/23 08:50:38;;;;;;;6.80;2.97;;;8.70;99.90;;;;;;5079264;28;20465;-60
2022/11/23 08:53:05;;;;;;;8.87;3.50;;;8.90;99.90;;;;;;5056846;28;20469;-61
2022/11/23 08:55:33;;;;;;;7.40;3.17;;;9.00;99.90;;;;;;5053697;28;20478;-61
2022/11/23 08:58:03;;;;;;;10.50;2.77;;;9.10;99.90;;;;;;5035828;28;20520;-60
2022/11/23 09:00:30;;;;;;;10.00;2.83;;;9.20;99.90;;;;;;5037613;28;20494;-61
2022/11/23 09:02:58;;;;;;;8.67;3.43;;;9.20;99.90;;;;;;5048800;28;20557;-60
2022/11/23 09:05:29;;;;;;;6.33;2.57;;;9.20;99.90;;;;;;5057703;28;20486;-61
2022/11/23 09:08:07;;;;;;;9.20;3.10;;;9.30;99.90;;;;;;5067512;28;20454;-61
2022/11/23 09:10:35;;;;;;;7.83;2.90;;;9.30;99.90;;;;;;5066068;28;20505;-61
2022/11/23 09:13:04;;;;;;;9.00;3.10;;;9.30;99.90;;;;;;5066207;28;20553;-60
2022/11/23 09:15:33;;;;;;;7.67;3.10;;;9.40;99.90;;;;;;5064153;28;20740;-61
2022/11/23 09:18:00;;;;;;;7.60;2.70;;;9.40;1.00;;;;;;5063547;28;20465;-61
2022/11/23 09:20:29;;;;;;;8.03;2.93;;;9.50;99.90;;;;;;5065605;28;20455;-61
2022/11/23 09:23:00;;;;;;;13.10;3.60;;;9.50;99.90;;;;;;5066865;28;20764;-61
2022/11/23 09:25:27;;;;;;;6.27;2.90;;;9.40;99.90;;;;;;5071755;28;20562;-62
2022/11/23 09:27:58;;;;;;;9.00;2.80;;;9.50;99.90;;;;;;5074115;28;20467;-63
2022/11/23 09:30:30;;;;;;;8.33;2.90;;;9.50;99.90;;;;;;5078145;28;20461;-62
2022/11/23 09:32:57;;;;;;;5.43;3.43;;;9.50;99.90;;;;;;5075043;28;20479;-63
2022/11/23 09:35:27;;;;;;;9.30;3.30;;;9.70;99.90;;;;;;5058345;28;20433;-64
2022/11/23 09:37:59;;;;;;;6.40;3.10;;;9.70;34.60;;;;;;5057385;28;20462;-64
2022/11/23 09:40:34;;;;;;;7.00;3.00;;;9.60;1.00;;;;;;5057456;28;20782;-64
2022/11/23 09:43:26;;;;;;;8.07;3.13;;;9.60;1.00;;;;;;5057559;28;20461;-62
2022/11/23 09:46:11;;;;;;;9.43;3.37;;;9.70;1.00;;;;;;5038040;28;20513;-63
2022/11/23 09:48:53;;;;;;;11.20;3.00;;;9.80;1.00;;;;;;5037702;28;20467;-64
2022/11/23 09:51:28;;;;;;;11.03;3.17;;;9.90;1.00;;;;;;5050874;28;20811;-64
2022/11/23 09:53:58;;;;;;;9.73;3.50;;;9.80;1.00;;;;;;5073579;28;20840;-64
2022/11/23 09:56:30;;;;;;;10.47;3.07;;;10.00;1.00;;;;;;5056123;28;20469;-63
2022/11/23 09:59:08;;;;;;;12.90;4.57;;;10.10;1.00;;;;;;5056783;28;20777;-64
2022/11/23 10:01:39;;;;;;;9.73;3.20;;;10.10;1.00;;;;;;5054349;28;20505;-64
2022/11/23 10:04:11;;;;;;;10.70;4.40;;;10.20;1.00;;;;;;5039975;28;20589;-64
2022/11/23 10:06:40;;;;;;;12.17;2.97;;;10.10;1.00;;;;;;5042945;28;20481;-64
2022/11/23 10:09:21;;;;;;;9.07;4.17;;;10.10;1.00;;;;;;5058085;28;20525;-64
2022/11/23 10:12:40;;;;;;;6.47;2.70;;;10.10;1.00;;;;;;5058653;28;20473;-64
2022/11/23 10:15:12;;;;;;;9.60;3.37;;;9.80;1.00;;;;;;4971681;28;20535;-64
2022/11/23 10:18:07;;;;;;;11.70;3.60;;;9.40;1.00;;;;;;4975932;28;20516;-64
2022/11/23 10:20:51;;;;;;;9.63;3.20;;;9.30;1.00;;;;;;5020652;28;20474;-64
2022/11/23 10:23:40;;;;;;;7.90;3.10;;;9.50;1.00;;;;;;5037456;28;20558;-63
2022/11/23 10:26:12;;;;;;;9.87;3.23;;;9.80;1.00;;;;;;5054054;28;20516;-64
2022/11/23 10:28:43;;;;;;;7.20;3.17;;;9.80;1.00;;;;;;5037205;28;20463;-65
2022/11/23 10:31:16;;;;;;;9.47;3.43;;;9.90;1.00;;;;;;5036890;28;20462;-63
2022/11/23 10:34:00;;;;;;;8.70;3.13;;;9.90;1.00;;;;;;5063589;28;20829;-63
2022/11/23 10:36:30;;;;;;;6.43;2.90;;;10.10;1.00;;;;;;5039817;28;20509;-64
2022/11/23 10:39:00;;;;;;;11.53;3.63;;;10.10;99.90;;;;;;5050626;28;20780;-64
2022/11/23 10:41:30;;;;;;;6.67;2.90;;;10.20;99.90;;;;;;5057110;28;20468;-64
2022/11/23 10:44:06;;;;;;;7.37;3.23;;;10.40;99.90;;;;;;5056950;28;20463;-63
2022/11/23 10:46:40;;;;;;;8.07;3.30;;;10.50;99.90;;;;;;5067001;28;20488;-64
2022/11/23 10:49:18;;;;;;;12.40;2.80;;;10.50;99.90;;;;;;5076727;28;20465;-63
2022/11/23 10:51:54;;;;;;;11.00;2.80;;;10.70;99.90;;;;;;5036963;28;20562;-63
2022/11/23 10:54:27;;;;;;;10.20;3.30;;;10.80;99.90;;;;;;5037179;28;20463;-64
2022/11/23 10:56:55;;;;;;;7.67;2.73;;;10.70;99.90;;;;;;5048710;28;20466;-64
2022/11/23 10:59:35;;;;;;;9.50;3.50;;;10.90;99.90;;;;;;5054771;28;20490;-64
2022/11/23 11:02:16;;;;;;;12.10;3.50;;;10.70;99.90;;;;;;5057402;28;20736;-64
2022/11/23 11:04:46;;;;;;;8.30;2.53;;;10.80;99.90;;;;;;5056535;28;20786;-63
2022/11/23 11:07:31;;;;;;;6.83;2.83;;;10.70;99.90;;;;;;5044369;28;20491;-63
2022/11/23 11:10:00;;;;;;;8.40;3.43;;;10.60;99.90;;;;;;5037319;28;20467;-64
2022/11/23 11:12:32;;;;;;;7.63;2.80;;;10.30;99.90;;;;;;5047273;28;20903;-64
2022/11/23 11:15:05;;;;;;;9.00;3.03;;;10.00;99.90;;;;;;5049320;28;20902;-63
2022/11/23 11:17:38;;;;;;;6.60;3.30;;;9.80;99.90;;;;;;5054898;28;20462;-64
2022/11/23 11:20:30;;;;;;;8.77;3.13;;;9.90;99.90;;;;;;5055502;28;20469;-64
2022/11/23 11:23:09;;;;;;;;;;;;;;;;;;;;;
2022/11/23 11:25:39;;;;;;;6.67;3.30;;;9.60;99.90;;;;;;5072130;28;20507;-64
2022/11/23 11:28:19;;;;;;;9.90;3.23;;;9.60;99.90;;;;;;5064371;28;20548;-64
2022/11/23 11:30:54;;;;;;;14.43;3.43;;;9.60;99.90;;;;;;5057421;28;20531;-63
2022/11/23 11:33:31;;;;;;;12.20;3.33;;;9.60;99.90;;;;;;5059774;28;20494;-63
2022/11/23 11:36:11;;;;;;;10.23;3.90;;;9.70;99.90;;;;;;5076794;28;20852;-63
2022/11/23 11:38:40;;;;;;;7.00;3.13;;;9.70;1.00;;;;;;5063206;28;20494;-63
2022/11/23 11:41:11;;;;;;;10.80;3.50;;;9.60;99.90;;;;;;5056655;28;20466;-63
2022/11/23 11:43:46;;;;;;;10.30;3.87;;;9.30;99.90;;;;;;5057009;28;20466;-65
2022/11/23 11:46:19;;;;;;;12.80;3.40;;;9.60;1.00;;;;;;5060478;28;20546;-63
2022/11/23 11:48:54;;;;;;;9.30;3.57;;;10.30;99.90;;;;;;5050538;28;20504;-64
2022/11/23 11:51:28;;;;;;;9.60;3.60;;;10.70;99.90;;;;;;5041256;28;20463;-63
2022/11/23 11:54:00;;;;;;;7.57;3.40;;;11.00;99.90;;;;;;5041953;28;20586;-63
2022/11/23 11:56:34;;;;;;;12.27;3.63;;;10.80;99.90;;;;;;5039571;28;20549;-63
2022/11/23 11:59:16;;;;;;;13.13;3.80;;;10.90;99.90;;;;;;5046253;28;20480;-63
2022/11/23 12:01:59;;;;;;;8.33;2.93;;;11.00;99.90;;;;;;5059537;28;20440;-63
2022/11/23 12:04:37;;;;;;;10.30;3.37;;;10.90;99.90;;;;;;5042167;28;20468;-63
2022/11/23 12:07:14;;;;;;;7.10;3.33;;;10.50;99.90;;;;;;5054954;28;20584;-64
2022/11/23 12:09:44;;;;;;;5.50;3.10;;;10.10;99.90;;;;;;5048111;28;20558;-62
2022/11/23 12:12:16;;;;;;;6.77;3.30;;;10.00;99.90;;;;;;5039406;28;20463;-62
2022/11/23 12:14:45;;;;;;;6.67;3.40;;;9.80;99.90;;;;;;5044153;28;20533;-63
2022/11/23 12:17:33;;;;;;;11.70;3.77;;;9.70;99.90;;;;;;5072634;28;20481;-62
2022/11/23 12:20:13;;;;;;;8.70;3.93;;;9.90;99.90;;;;;;5059254;28;20462;-62
2022/11/23 12:22:56;;;;;;;6.40;3.20;;;9.90;99.90;;;;;;5068462;28;20907;-62
2022/11/23 12:25:33;;;;;;;6.43;3.60;;;9.90;99.90;;;;;;5062731;28;20469;-62
2022/11/23 12:28:32;;;;;;;8.97;3.43;;;10.00;99.90;;;;;;5063214;28;20474;-62
2022/11/23 12:31:13;;;;;;;6.20;3.40;;;10.00;99.90;;;;;;5053881;28;20509;-62
2022/11/23 12:34:10;;;;;;;9.23;3.27;;;10.00;99.90;;;;;;5062356;28;20520;-61
2022/11/23 12:36:52;;;;;;;8.43;3.10;;;10.00;99.90;;;;;;5064791;28;20533;-61
2022/11/23 12:39:53;;;;;;;8.63;3.30;;;10.00;99.90;;;;;;5065351;28;20456;-61
2022/11/23 12:42:34;;;;;;;7.33;3.80;;;10.10;99.90;;;;;;5065669;28;20453;-61
2022/11/23 12:45:30;;;;;;;7.43;3.90;;;10.10;99.90;;;;;;5063618;28;20462;-61
2022/11/23 12:48:09;;;;;;;6.83;3.33;;;10.00;99.90;;;;;;5063297;28;20437;-61
2022/11/23 12:50:47;;;;;;;8.17;3.40;;;10.10;99.90;;;;;;5061120;28;20473;-61
2022/11/23 12:53:36;;;;;;;10.00;3.40;;;10.10;99.90;;;;;;5062360;28;20786;-62
2022/11/23 12:56:18;;;;;;;9.40;3.30;;;10.10;99.90;;;;;;5060074;28;20462;-62
2022/11/23 12:58:48;;;;;;;7.27;3.00;;;10.10;99.90;;;;;;5066659;28;20520;-60
2022/11/23 13:01:20;;;;;;;8.33;4.03;;;9.90;99.90;;;;;;5057687;28;20463;-61
2022/11/23 13:04:23;;;;;;;9.43;3.50;;;9.80;99.90;;;;;;5051669;28;20566;-59
2022/11/23 13:07:27;;;;;;;5.70;2.80;;;9.80;99.90;;;;;;5041673;28;20923;-62
2022/11/23 13:10:23;;;;;;;8.07;3.40;;;9.70;99.90;;;;;;5053586;28;20477;-62
2022/11/23 13:13:18;;;;;;;8.37;3.53;;;9.70;99.90;;;;;;5057578;28;20737;-62
2022/11/23 13:16:09;;;;;;;9.97;2.97;;;9.40;99.90;;;;;;5054749;28;20462;-61
2022/11/23 13:18:53;;;;;;;5.20;2.73;;;9.30;99.90;;;;;;5023950;28;20888;-61